sensor_id;sensor_type;location;lat;lon;timestamp;P1;durP1;ratioP1;P2;durP2;ratioP2
73571;SDS011;61854;48.510;-2.770;2023-10-19T00:00:39;7.53;;;1.50;;
73571;SDS011;61854;48.510;-2.770;2023-10-19T00:03:09;8.80;;;1.60;;
73571;SDS011;61854;48.510;-2.770;2023-10-19T00:05:35;7.50;;;1.48;;
73571;SDS011;61854;48.510;-2.770;2023-10-19T00:08:04;6.82;;;1.52;;
73571;SDS011;61854;48.510;-2.770;2023-10-19T00:10:41;9.70;;;1.73;;
73571;SDS011;61854;48.510;-2.770;2023-10-19T00:13:08;17.60;;;2.80;;
73571;SDS011;61854;48.510;-2.770;2023-10-19T00:15:36;13.93;;;2.25;;
73571;SDS011;61854;48.510;-2.770;2023-10-19T00:18:11;10.13;;;2.13;;
73571;SDS011;61854;48.510;-2.770;2023-10-19T00:20:44;10.15;;;2.00;;
73571;SDS011;61854;48.510;-2.770;2023-10-19T00:23:11;16.40;;;2.53;;
73571;SDS011;61854;48.510;-2.770;2023-10-19T00:25:39;16.87;;;2.73;;
73571;SDS011;61854;48.510;-2.770;2023-10-19T00:28:09;18.10;;;2.83;;
73571;SDS011;61854;48.510;-2.770;2023-10-19T00:30:38;17.77;;;3.05;;
73571;SDS011;61854;48.510;-2.770;2023-10-19T00:33:08;17.40;;;3.15;;
73571;SDS011;61854;48.510;-2.770;2023-10-19T00:38:30;16.58;;;2.80;;
73571;SDS011;61854;48.510;-2.770;2023-10-19T00:43:26;15.10;;;2.60;;
73571;SDS011;61854;48.510;-2.770;2023-10-19T00:48:19;17.67;;;2.63;;
73571;SDS011;61854;48.510;-2.770;2023-10-19T00:50:51;20.25;;;3.42;;
73571;SDS011;61854;48.510;-2.770;2023-10-19T00:53:20;12.75;;;2.10;;
73571;SDS011;61854;48.510;-2.770;2023-10-19T00:55:47;24.55;;;3.50;;
73571;SDS011;61854;48.510;-2.770;2023-10-19T00:58:13;19.83;;;3.13;;
73571;SDS011;61854;48.510;-2.770;2023-10-19T01:00:43;29.92;;;3.47;;
73571;SDS011;61854;48.510;-2.770;2023-10-19T01:03:10;23.83;;;3.95;;
73571;SDS011;61854;48.510;-2.770;2023-10-19T01:05:39;20.95;;;2.97;;
73571;SDS011;61854;48.510;-2.770;2023-10-19T01:08:05;26.52;;;4.28;;
73571;SDS011;61854;48.510;-2.770;2023-10-19T01:10:49;24.33;;;3.85;;
73571;SDS011;61854;48.510;-2.770;2023-10-19T01:15:43;27.67;;;4.63;;
73571;SDS011;61854;48.510;-2.770;2023-10-19T01:18:14;21.33;;;3.25;;
73571;SDS011;61854;48.510;-2.770;2023-10-19T01:20:41;20.80;;;3.35;;
73571;SDS011;61854;48.510;-2.770;2023-10-19T01:23:17;24.17;;;3.78;;
73571;SDS011;61854;48.510;-2.770;2023-10-19T01:25:48;21.42;;;3.03;;
73571;SDS011;61854;48.510;-2.770;2023-10-19T01:28:23;24.55;;;3.70;;
73571;SDS011;61854;48.510;-2.770;2023-10-19T01:31:15;22.70;;;3.10;;
73571;SDS011;61854;48.510;-2.770;2023-10-19T01:33:56;21.63;;;3.40;;
73571;SDS011;61854;48.510;-2.770;2023-10-19T01:36:24;26.92;;;4.03;;
73571;SDS011;61854;48.510;-2.770;2023-10-19T01:38:54;24.75;;;3.85;;
73571;SDS011;61854;48.510;-2.770;2023-10-19T01:41:25;23.15;;;3.25;;
73571;SDS011;61854;48.510;-2.770;2023-10-19T01:43:52;15.30;;;2.75;;
73571;SDS011;61854;48.510;-2.770;2023-10-19T01:46:18;21.90;;;3.00;;
73571;SDS011;61854;48.510;-2.770;2023-10-19T01:48:50;18.02;;;2.42;;
73571;SDS011;61854;48.510;-2.770;2023-10-19T01:51:21;24.52;;;4.13;;
73571;SDS011;61854;48.510;-2.770;2023-10-19T01:53:48;19.42;;;2.92;;
73571;SDS011;61854;48.510;-2.770;2023-10-19T01:56:15;16.95;;;3.60;;
73571;SDS011;61854;48.510;-2.770;2023-10-19T01:58:42;19.00;;;2.97;;
73571;SDS011;61854;48.510;-2.770;2023-10-19T02:01:11;17.85;;;3.33;;
73571;SDS011;61854;48.510;-2.770;2023-10-19T02:03:38;19.88;;;3.63;;
73571;SDS011;61854;48.510;-2.770;2023-10-19T02:06:07;24.77;;;3.35;;
73571;SDS011;61854;48.510;-2.770;2023-10-19T02:08:51;22.27;;;3.33;;
73571;SDS011;61854;48.510;-2.770;2023-10-19T02:11:24;16.20;;;2.90;;
73571;SDS011;61854;48.510;-2.770;2023-10-19T02:13:51;19.42;;;3.40;;
73571;SDS011;61854;48.510;-2.770;2023-10-19T02:16:19;20.98;;;2.95;;
73571;SDS011;61854;48.510;-2.770;2023-10-19T02:18:49;21.88;;;3.67;;
73571;SDS011;61854;48.510;-2.770;2023-10-19T02:21:15;18.98;;;2.80;;
73571;SDS011;61854;48.510;-2.770;2023-10-19T02:23:47;24.60;;;3.45;;
73571;SDS011;61854;48.510;-2.770;2023-10-19T02:26:15;23.13;;;3.42;;
73571;SDS011;61854;48.510;-2.770;2023-10-19T02:28:55;24.75;;;3.72;;
73571;SDS011;61854;48.510;-2.770;2023-10-19T02:31:22;19.30;;;3.22;;
73571;SDS011;61854;48.510;-2.770;2023-10-19T02:36:28;20.73;;;3.97;;
73571;SDS011;61854;48.510;-2.770;2023-10-19T02:38:55;24.08;;;3.70;;
73571;SDS011;61854;48.510;-2.770;2023-10-19T02:41:25;27.30;;;3.72;;
73571;SDS011;61854;48.510;-2.770;2023-10-19T02:43:55;27.20;;;4.25;;
73571;SDS011;61854;48.510;-2.770;2023-10-19T02:46:31;21.33;;;4.03;;
73571;SDS011;61854;48.510;-2.770;2023-10-19T02:49:00;23.83;;;3.65;;
73571;SDS011;61854;48.510;-2.770;2023-10-19T02:51:28;30.85;;;4.13;;
73571;SDS011;61854;48.510;-2.770;2023-10-19T02:56:26;25.85;;;3.85;;
73571;SDS011;61854;48.510;-2.770;2023-10-19T02:58:54;32.08;;;4.45;;
73571;SDS011;61854;48.510;-2.770;2023-10-19T03:01:27;28.30;;;4.28;;
73571;SDS011;61854;48.510;-2.770;2023-10-19T03:03:59;20.92;;;2.97;;
73571;SDS011;61854;48.510;-2.770;2023-10-19T03:06:27;27.13;;;4.15;;
73571;SDS011;61854;48.510;-2.770;2023-10-19T03:08:58;27.92;;;3.55;;
73571;SDS011;61854;48.510;-2.770;2023-10-19T03:11:30;21.88;;;3.30;;
73571;SDS011;61854;48.510;-2.770;2023-10-19T03:13:59;23.65;;;3.25;;
73571;SDS011;61854;48.510;-2.770;2023-10-19T03:16:29;21.38;;;2.83;;
73571;SDS011;61854;48.510;-2.770;2023-10-19T03:18:55;30.60;;;4.13;;
73571;SDS011;61854;48.510;-2.770;2023-10-19T03:21:21;30.33;;;4.43;;
73571;SDS011;61854;48.510;-2.770;2023-10-19T03:23:54;22.98;;;3.67;;
73571;SDS011;61854;48.510;-2.770;2023-10-19T03:26:26;26.58;;;4.03;;
73571;SDS011;61854;48.510;-2.770;2023-10-19T03:29:02;23.63;;;3.78;;
73571;SDS011;61854;48.510;-2.770;2023-10-19T03:31:48;26.73;;;4.00;;
73571;SDS011;61854;48.510;-2.770;2023-10-19T03:34:14;27.50;;;3.70;;
73571;SDS011;61854;48.510;-2.770;2023-10-19T03:36:42;25.17;;;3.28;;
73571;SDS011;61854;48.510;-2.770;2023-10-19T03:39:08;28.70;;;3.65;;
73571;SDS011;61854;48.510;-2.770;2023-10-19T03:41:39;24.02;;;3.50;;
73571;SDS011;61854;48.510;-2.770;2023-10-19T03:44:10;23.60;;;3.60;;
73571;SDS011;61854;48.510;-2.770;2023-10-19T03:46:44;23.25;;;4.38;;
73571;SDS011;61854;48.510;-2.770;2023-10-19T03:49:21;26.25;;;3.58;;
73571;SDS011;61854;48.510;-2.770;2023-10-19T03:51:47;28.35;;;3.58;;
73571;SDS011;61854;48.510;-2.770;2023-10-19T03:54:28;30.58;;;4.10;;
73571;SDS011;61854;48.510;-2.770;2023-10-19T03:56:54;32.78;;;3.83;;
73571;SDS011;61854;48.510;-2.770;2023-10-19T03:59:22;30.48;;;4.43;;
73571;SDS011;61854;48.510;-2.770;2023-10-19T04:01:49;26.97;;;3.90;;
73571;SDS011;61854;48.510;-2.770;2023-10-19T04:04:15;23.33;;;3.45;;
73571;SDS011;61854;48.510;-2.770;2023-10-19T04:06:41;25.38;;;3.88;;
73571;SDS011;61854;48.510;-2.770;2023-10-19T04:09:12;28.58;;;3.80;;
73571;SDS011;61854;48.510;-2.770;2023-10-19T04:11:42;27.70;;;3.38;;
73571;SDS011;61854;48.510;-2.770;2023-10-19T04:14:16;28.45;;;3.97;;
73571;SDS011;61854;48.510;-2.770;2023-10-19T04:16:43;31.20;;;3.95;;
73571;SDS011;61854;48.510;-2.770;2023-10-19T04:19:12;26.08;;;3.80;;
73571;SDS011;61854;48.510;-2.770;2023-10-19T04:21:39;31.55;;;4.03;;
73571;SDS011;61854;48.510;-2.770;2023-10-19T04:24:09;28.25;;;4.07;;
73571;SDS011;61854;48.510;-2.770;2023-10-19T04:26:35;28.92;;;4.68;;
73571;SDS011;61854;48.510;-2.770;2023-10-19T04:29:02;28.65;;;4.35;;
73571;SDS011;61854;48.510;-2.770;2023-10-19T04:31:42;37.70;;;4.60;;
73571;SDS011;61854;48.510;-2.770;2023-10-19T04:34:19;31.40;;;3.85;;
73571;SDS011;61854;48.510;-2.770;2023-10-19T04:36:52;26.92;;;3.50;;
73571;SDS011;61854;48.510;-2.770;2023-10-19T04:39:18;28.23;;;4.05;;
73571;SDS011;61854;48.510;-2.770;2023-10-19T04:41:45;28.13;;;4.18;;
73571;SDS011;61854;48.510;-2.770;2023-10-19T04:44:13;27.98;;;4.22;;
73571;SDS011;61854;48.510;-2.770;2023-10-19T04:46:40;37.80;;;5.00;;
73571;SDS011;61854;48.510;-2.770;2023-10-19T04:49:07;28.70;;;4.47;;
73571;SDS011;61854;48.510;-2.770;2023-10-19T04:51:33;29.77;;;5.03;;
73571;SDS011;61854;48.510;-2.770;2023-10-19T04:54:03;25.58;;;3.72;;
73571;SDS011;61854;48.510;-2.770;2023-10-19T04:56:30;32.65;;;4.85;;
73571;SDS011;61854;48.510;-2.770;2023-10-19T04:58:56;26.65;;;4.03;;
73571;SDS011;61854;48.510;-2.770;2023-10-19T05:01:22;31.52;;;4.25;;
73571;SDS011;61854;48.510;-2.770;2023-10-19T05:03:47;31.75;;;4.15;;
73571;SDS011;61854;48.510;-2.770;2023-10-19T05:06:13;37.80;;;5.07;;
73571;SDS011;61854;48.510;-2.770;2023-10-19T05:08:38;25.80;;;4.45;;
73571;SDS011;61854;48.510;-2.770;2023-10-19T05:11:04;32.15;;;5.35;;
73571;SDS011;61854;48.510;-2.770;2023-10-19T05:13:31;35.70;;;4.38;;
73571;SDS011;61854;48.510;-2.770;2023-10-19T05:15:58;25.08;;;4.50;;
73571;SDS011;61854;48.510;-2.770;2023-10-19T05:18:24;25.55;;;4.03;;
73571;SDS011;61854;48.510;-2.770;2023-10-19T05:20:51;33.92;;;4.60;;
73571;SDS011;61854;48.510;-2.770;2023-10-19T05:23:23;21.77;;;3.58;;
73571;SDS011;61854;48.510;-2.770;2023-10-19T05:25:51;25.42;;;4.10;;
73571;SDS011;61854;48.510;-2.770;2023-10-19T05:28:18;25.92;;;4.25;;
73571;SDS011;61854;48.510;-2.770;2023-10-19T05:30:46;32.08;;;4.78;;
73571;SDS011;61854;48.510;-2.770;2023-10-19T05:33:13;26.67;;;4.03;;
73571;SDS011;61854;48.510;-2.770;2023-10-19T05:35:39;42.22;;;5.60;;
73571;SDS011;61854;48.510;-2.770;2023-10-19T05:38:06;33.97;;;5.07;;
73571;SDS011;61854;48.510;-2.770;2023-10-19T05:40:32;34.92;;;5.28;;
73571;SDS011;61854;48.510;-2.770;2023-10-19T05:42:59;37.03;;;5.15;;
73571;SDS011;61854;48.510;-2.770;2023-10-19T05:45:26;29.70;;;3.92;;
73571;SDS011;61854;48.510;-2.770;2023-10-19T05:47:53;36.45;;;5.18;;
73571;SDS011;61854;48.510;-2.770;2023-10-19T05:50:25;36.15;;;5.18;;
73571;SDS011;61854;48.510;-2.770;2023-10-19T05:52:53;29.55;;;4.35;;
73571;SDS011;61854;48.510;-2.770;2023-10-19T05:55:19;29.52;;;4.32;;
73571;SDS011;61854;48.510;-2.770;2023-10-19T05:57:46;35.15;;;5.32;;
73571;SDS011;61854;48.510;-2.770;2023-10-19T06:00:12;33.58;;;4.50;;
73571;SDS011;61854;48.510;-2.770;2023-10-19T06:02:45;42.78;;;5.90;;
73571;SDS011;61854;48.510;-2.770;2023-10-19T06:05:12;33.90;;;5.38;;
73571;SDS011;61854;48.510;-2.770;2023-10-19T06:07:40;39.20;;;5.30;;
73571;SDS011;61854;48.510;-2.770;2023-10-19T06:10:07;21.35;;;4.38;;
73571;SDS011;61854;48.510;-2.770;2023-10-19T06:12:33;33.65;;;4.53;;
73571;SDS011;61854;48.510;-2.770;2023-10-19T06:14:59;30.90;;;3.92;;
73571;SDS011;61854;48.510;-2.770;2023-10-19T06:17:28;25.20;;;3.78;;
73571;SDS011;61854;48.510;-2.770;2023-10-19T06:19:54;25.35;;;4.03;;
73571;SDS011;61854;48.510;-2.770;2023-10-19T06:22:21;27.02;;;3.90;;
73571;SDS011;61854;48.510;-2.770;2023-10-19T06:24:46;23.50;;;3.35;;
73571;SDS011;61854;48.510;-2.770;2023-10-19T06:27:12;21.58;;;3.28;;
73571;SDS011;61854;48.510;-2.770;2023-10-19T06:29:38;19.08;;;2.72;;
73571;SDS011;61854;48.510;-2.770;2023-10-19T06:32:03;25.20;;;3.72;;
73571;SDS011;61854;48.510;-2.770;2023-10-19T06:34:29;16.63;;;2.65;;
73571;SDS011;61854;48.510;-2.770;2023-10-19T06:36:55;17.00;;;2.42;;
73571;SDS011;61854;48.510;-2.770;2023-10-19T06:39:21;16.65;;;3.28;;
73571;SDS011;61854;48.510;-2.770;2023-10-19T06:41:47;17.90;;;3.53;;
73571;SDS011;61854;48.510;-2.770;2023-10-19T06:44:13;14.73;;;2.80;;
73571;SDS011;61854;48.510;-2.770;2023-10-19T06:46:39;11.88;;;2.30;;
73571;SDS011;61854;48.510;-2.770;2023-10-19T06:49:05;18.02;;;2.83;;
73571;SDS011;61854;48.510;-2.770;2023-10-19T06:51:31;19.20;;;3.70;;
73571;SDS011;61854;48.510;-2.770;2023-10-19T06:53:58;17.25;;;2.38;;
73571;SDS011;61854;48.510;-2.770;2023-10-19T06:56:24;15.55;;;2.55;;
73571;SDS011;61854;48.510;-2.770;2023-10-19T06:58:49;17.58;;;2.70;;
73571;SDS011;61854;48.510;-2.770;2023-10-19T07:01:15;15.18;;;3.28;;
73571;SDS011;61854;48.510;-2.770;2023-10-19T07:03:41;14.32;;;2.35;;
73571;SDS011;61854;48.510;-2.770;2023-10-19T07:06:07;18.55;;;3.00;;
73571;SDS011;61854;48.510;-2.770;2023-10-19T07:08:38;16.83;;;2.72;;
73571;SDS011;61854;48.510;-2.770;2023-10-19T07:11:06;20.47;;;4.00;;
73571;SDS011;61854;48.510;-2.770;2023-10-19T07:13:32;12.70;;;2.60;;
73571;SDS011;61854;48.510;-2.770;2023-10-19T07:15:58;23.92;;;2.83;;
73571;SDS011;61854;48.510;-2.770;2023-10-19T07:18:24;15.20;;;2.78;;
73571;SDS011;61854;48.510;-2.770;2023-10-19T07:20:50;8.52;;;2.05;;
73571;SDS011;61854;48.510;-2.770;2023-10-19T07:23:18;16.90;;;3.40;;
73571;SDS011;61854;48.510;-2.770;2023-10-19T07:25:45;23.60;;;4.10;;
73571;SDS011;61854;48.510;-2.770;2023-10-19T07:28:13;24.88;;;3.80;;
73571;SDS011;61854;48.510;-2.770;2023-10-19T07:30:40;22.27;;;3.97;;
73571;SDS011;61854;48.510;-2.770;2023-10-19T07:33:10;20.00;;;3.28;;
73571;SDS011;61854;48.510;-2.770;2023-10-19T07:35:42;23.98;;;4.22;;
73571;SDS011;61854;48.510;-2.770;2023-10-19T07:38:09;23.58;;;3.55;;
73571;SDS011;61854;48.510;-2.770;2023-10-19T07:40:35;24.33;;;3.88;;
73571;SDS011;61854;48.510;-2.770;2023-10-19T07:43:02;18.00;;;3.92;;
73571;SDS011;61854;48.510;-2.770;2023-10-19T07:45:29;27.92;;;4.50;;
73571;SDS011;61854;48.510;-2.770;2023-10-19T07:47:56;19.20;;;3.03;;
73571;SDS011;61854;48.510;-2.770;2023-10-19T07:50:23;24.30;;;4.38;;
73571;SDS011;61854;48.510;-2.770;2023-10-19T07:52:52;26.38;;;4.70;;
73571;SDS011;61854;48.510;-2.770;2023-10-19T07:55:19;23.50;;;4.00;;
73571;SDS011;61854;48.510;-2.770;2023-10-19T07:57:50;28.88;;;4.95;;
73571;SDS011;61854;48.510;-2.770;2023-10-19T08:00:16;23.90;;;3.90;;
73571;SDS011;61854;48.510;-2.770;2023-10-19T08:02:43;23.67;;;3.50;;
73571;SDS011;61854;48.510;-2.770;2023-10-19T08:05:15;28.58;;;4.38;;
73571;SDS011;61854;48.510;-2.770;2023-10-19T08:07:45;25.67;;;3.80;;
73571;SDS011;61854;48.510;-2.770;2023-10-19T08:10:15;29.13;;;4.47;;
73571;SDS011;61854;48.510;-2.770;2023-10-19T08:12:42;32.63;;;5.10;;
73571;SDS011;61854;48.510;-2.770;2023-10-19T08:15:10;33.63;;;5.70;;
73571;SDS011;61854;48.510;-2.770;2023-10-19T08:17:39;31.50;;;4.53;;
73571;SDS011;61854;48.510;-2.770;2023-10-19T08:20:13;30.08;;;4.88;;
73571;SDS011;61854;48.510;-2.770;2023-10-19T08:22:48;23.23;;;3.92;;
73571;SDS011;61854;48.510;-2.770;2023-10-19T08:25:17;36.88;;;5.28;;
73571;SDS011;61854;48.510;-2.770;2023-10-19T08:27:45;26.77;;;3.67;;
73571;SDS011;61854;48.510;-2.770;2023-10-19T08:30:18;35.83;;;5.13;;
73571;SDS011;61854;48.510;-2.770;2023-10-19T08:32:46;35.05;;;5.20;;
73571;SDS011;61854;48.510;-2.770;2023-10-19T08:35:15;26.38;;;5.40;;
73571;SDS011;61854;48.510;-2.770;2023-10-19T08:37:51;29.50;;;4.30;;
73571;SDS011;61854;48.510;-2.770;2023-10-19T08:40:22;34.88;;;5.18;;
73571;SDS011;61854;48.510;-2.770;2023-10-19T08:42:51;31.35;;;4.97;;
73571;SDS011;61854;48.510;-2.770;2023-10-19T08:45:18;33.35;;;5.63;;
73571;SDS011;61854;48.510;-2.770;2023-10-19T08:47:56;27.95;;;4.85;;
73571;SDS011;61854;48.510;-2.770;2023-10-19T08:50:24;37.65;;;5.78;;
73571;SDS011;61854;48.510;-2.770;2023-10-19T08:52:55;25.50;;;4.18;;
73571;SDS011;61854;48.510;-2.770;2023-10-19T08:55:22;43.97;;;6.05;;
73571;SDS011;61854;48.510;-2.770;2023-10-19T08:57:49;32.85;;;4.90;;
73571;SDS011;61854;48.510;-2.770;2023-10-19T09:00:17;44.67;;;5.80;;
73571;SDS011;61854;48.510;-2.770;2023-10-19T09:02:46;30.45;;;3.65;;
73571;SDS011;61854;48.510;-2.770;2023-10-19T09:07:53;29.77;;;4.43;;
73571;SDS011;61854;48.510;-2.770;2023-10-19T09:10:22;17.90;;;3.22;;
73571;SDS011;61854;48.510;-2.770;2023-10-19T09:13:01;27.85;;;3.63;;
73571;SDS011;61854;48.510;-2.770;2023-10-19T09:15:37;20.55;;;3.13;;
73571;SDS011;61854;48.510;-2.770;2023-10-19T09:18:22;18.50;;;3.10;;
73571;SDS011;61854;48.510;-2.770;2023-10-19T09:20:50;31.17;;;4.70;;
73571;SDS011;61854;48.510;-2.770;2023-10-19T09:23:24;26.67;;;4.20;;
73571;SDS011;61854;48.510;-2.770;2023-10-19T09:25:55;30.08;;;4.22;;
73571;SDS011;61854;48.510;-2.770;2023-10-19T09:28:23;18.42;;;2.90;;
73571;SDS011;61854;48.510;-2.770;2023-10-19T09:30:49;23.80;;;4.20;;
73571;SDS011;61854;48.510;-2.770;2023-10-19T09:33:16;21.48;;;3.42;;
73571;SDS011;61854;48.510;-2.770;2023-10-19T09:35:49;34.08;;;4.72;;
73571;SDS011;61854;48.510;-2.770;2023-10-19T09:38:17;28.95;;;3.83;;
73571;SDS011;61854;48.510;-2.770;2023-10-19T09:40:50;23.48;;;3.53;;
73571;SDS011;61854;48.510;-2.770;2023-10-19T09:43:30;28.40;;;4.65;;
73571;SDS011;61854;48.510;-2.770;2023-10-19T09:46:01;19.65;;;2.97;;
73571;SDS011;61854;48.510;-2.770;2023-10-19T09:48:32;23.10;;;4.68;;
73571;SDS011;61854;48.510;-2.770;2023-10-19T09:51:14;29.67;;;4.25;;
73571;SDS011;61854;48.510;-2.770;2023-10-19T09:53:42;30.42;;;4.38;;
73571;SDS011;61854;48.510;-2.770;2023-10-19T09:56:15;34.83;;;5.47;;
73571;SDS011;61854;48.510;-2.770;2023-10-19T09:58:51;23.23;;;4.63;;
73571;SDS011;61854;48.510;-2.770;2023-10-19T10:01:20;29.73;;;4.90;;
73571;SDS011;61854;48.510;-2.770;2023-10-19T10:03:51;28.63;;;4.90;;
73571;SDS011;61854;48.510;-2.770;2023-10-19T10:06:56;23.88;;;4.13;;
73571;SDS011;61854;48.510;-2.770;2023-10-19T10:11:48;20.73;;;3.60;;
73571;SDS011;61854;48.510;-2.770;2023-10-19T10:14:24;27.42;;;4.47;;
73571;SDS011;61854;48.510;-2.770;2023-10-19T10:17:00;23.65;;;4.40;;
73571;SDS011;61854;48.510;-2.770;2023-10-19T10:19:27;15.38;;;2.40;;
73571;SDS011;61854;48.510;-2.770;2023-10-19T10:24:43;22.88;;;3.97;;
73571;SDS011;61854;48.510;-2.770;2023-10-19T10:27:09;26.15;;;4.38;;
73571;SDS011;61854;48.510;-2.770;2023-10-19T10:29:53;19.23;;;3.03;;
73571;SDS011;61854;48.510;-2.770;2023-10-19T10:35:08;17.92;;;3.13;;
73571;SDS011;61854;48.510;-2.770;2023-10-19T10:37:37;22.55;;;3.80;;
73571;SDS011;61854;48.510;-2.770;2023-10-19T10:40:05;23.90;;;4.28;;
73571;SDS011;61854;48.510;-2.770;2023-10-19T10:42:31;24.33;;;4.78;;
73571;SDS011;61854;48.510;-2.770;2023-10-19T10:44:59;23.53;;;3.33;;
73571;SDS011;61854;48.510;-2.770;2023-10-19T10:47:24;24.95;;;4.43;;
73571;SDS011;61854;48.510;-2.770;2023-10-19T10:49:53;25.15;;;3.83;;
73571;SDS011;61854;48.510;-2.770;2023-10-19T10:52:33;31.20;;;4.78;;
73571;SDS011;61854;48.510;-2.770;2023-10-19T10:55:09;26.80;;;3.85;;
73571;SDS011;61854;48.510;-2.770;2023-10-19T10:57:36;27.00;;;4.60;;
73571;SDS011;61854;48.510;-2.770;2023-10-19T11:00:07;28.60;;;5.78;;
73571;SDS011;61854;48.510;-2.770;2023-10-19T11:02:34;27.65;;;4.40;;
73571;SDS011;61854;48.510;-2.770;2023-10-19T11:05:01;23.30;;;4.35;;
73571;SDS011;61854;48.510;-2.770;2023-10-19T11:07:27;21.60;;;3.53;;
73571;SDS011;61854;48.510;-2.770;2023-10-19T11:09:53;26.98;;;4.43;;
73571;SDS011;61854;48.510;-2.770;2023-10-19T11:12:19;27.00;;;4.68;;
73571;SDS011;61854;48.510;-2.770;2023-10-19T11:14:52;29.90;;;4.63;;
73571;SDS011;61854;48.510;-2.770;2023-10-19T11:17:18;20.80;;;3.17;;
73571;SDS011;61854;48.510;-2.770;2023-10-19T11:19:47;16.77;;;2.92;;
73571;SDS011;61854;48.510;-2.770;2023-10-19T11:22:14;35.28;;;6.75;;
73571;SDS011;61854;48.510;-2.770;2023-10-19T11:24:40;31.88;;;6.85;;
73571;SDS011;61854;48.510;-2.770;2023-10-19T11:27:06;32.00;;;4.22;;
73571;SDS011;61854;48.510;-2.770;2023-10-19T11:29:37;28.50;;;4.68;;
73571;SDS011;61854;48.510;-2.770;2023-10-19T11:32:03;15.20;;;2.90;;
73571;SDS011;61854;48.510;-2.770;2023-10-19T11:34:31;32.53;;;4.78;;
73571;SDS011;61854;48.510;-2.770;2023-10-19T11:36:59;23.92;;;4.05;;
73571;SDS011;61854;48.510;-2.770;2023-10-19T11:39:25;22.95;;;3.17;;
73571;SDS011;61854;48.510;-2.770;2023-10-19T11:41:51;24.90;;;3.40;;
73571;SDS011;61854;48.510;-2.770;2023-10-19T11:44:18;20.90;;;3.35;;
73571;SDS011;61854;48.510;-2.770;2023-10-19T11:46:47;23.88;;;3.53;;
73571;SDS011;61854;48.510;-2.770;2023-10-19T11:49:13;23.02;;;3.85;;
73571;SDS011;61854;48.510;-2.770;2023-10-19T11:51:39;33.95;;;4.32;;
73571;SDS011;61854;48.510;-2.770;2023-10-19T11:54:04;29.67;;;4.43;;
73571;SDS011;61854;48.510;-2.770;2023-10-19T11:56:33;25.45;;;3.67;;
73571;SDS011;61854;48.510;-2.770;2023-10-19T11:58:59;17.92;;;3.13;;
73571;SDS011;61854;48.510;-2.770;2023-10-19T12:01:26;23.48;;;4.35;;
73571;SDS011;61854;48.510;-2.770;2023-10-19T12:03:52;22.55;;;3.42;;
73571;SDS011;61854;48.510;-2.770;2023-10-19T12:06:18;27.50;;;4.05;;
73571;SDS011;61854;48.510;-2.770;2023-10-19T12:08:44;17.33;;;3.00;;
73571;SDS011;61854;48.510;-2.770;2023-10-19T12:11:11;22.88;;;4.43;;
73571;SDS011;61854;48.510;-2.770;2023-10-19T12:13:43;27.88;;;3.92;;
73571;SDS011;61854;48.510;-2.770;2023-10-19T12:16:10;26.10;;;3.33;;
73571;SDS011;61854;48.510;-2.770;2023-10-19T12:18:38;28.98;;;4.68;;
73571;SDS011;61854;48.510;-2.770;2023-10-19T12:21:04;21.63;;;4.18;;
73571;SDS011;61854;48.510;-2.770;2023-10-19T12:23:33;23.05;;;3.92;;
73571;SDS011;61854;48.510;-2.770;2023-10-19T12:25:58;27.42;;;4.72;;
73571;SDS011;61854;48.510;-2.770;2023-10-19T12:28:28;29.48;;;4.40;;
73571;SDS011;61854;48.510;-2.770;2023-10-19T12:30:54;24.15;;;3.85;;
73571;SDS011;61854;48.510;-2.770;2023-10-19T12:33:21;26.60;;;3.47;;
73571;SDS011;61854;48.510;-2.770;2023-10-19T12:35:47;25.77;;;4.43;;
73571;SDS011;61854;48.510;-2.770;2023-10-19T12:38:22;23.63;;;4.18;;
73571;SDS011;61854;48.510;-2.770;2023-10-19T12:40:49;26.13;;;3.90;;
73571;SDS011;61854;48.510;-2.770;2023-10-19T12:43:19;17.17;;;2.95;;
73571;SDS011;61854;48.510;-2.770;2023-10-19T12:45:48;26.02;;;3.67;;
73571;SDS011;61854;48.510;-2.770;2023-10-19T12:48:22;36.80;;;4.28;;
73571;SDS011;61854;48.510;-2.770;2023-10-19T12:50:55;20.98;;;3.88;;
73571;SDS011;61854;48.510;-2.770;2023-10-19T12:53:20;26.80;;;5.80;;
73571;SDS011;61854;48.510;-2.770;2023-10-19T12:55:49;26.15;;;4.35;;
73571;SDS011;61854;48.510;-2.770;2023-10-19T12:58:15;24.55;;;3.97;;
73571;SDS011;61854;48.510;-2.770;2023-10-19T13:00:44;15.20;;;3.13;;
73571;SDS011;61854;48.510;-2.770;2023-10-19T13:03:12;24.17;;;3.70;;
73571;SDS011;61854;48.510;-2.770;2023-10-19T13:05:41;26.45;;;4.13;;
73571;SDS011;61854;48.510;-2.770;2023-10-19T13:10:38;20.40;;;3.38;;
73571;SDS011;61854;48.510;-2.770;2023-10-19T13:13:08;17.13;;;3.20;;
73571;SDS011;61854;48.510;-2.770;2023-10-19T13:15:41;16.92;;;2.53;;
73571;SDS011;61854;48.510;-2.770;2023-10-19T13:18:10;22.02;;;3.78;;
73571;SDS011;61854;48.510;-2.770;2023-10-19T13:20:38;17.63;;;3.00;;
73571;SDS011;61854;48.510;-2.770;2023-10-19T13:23:08;24.02;;;3.83;;
73571;SDS011;61854;48.510;-2.770;2023-10-19T13:25:37;19.67;;;3.78;;
73571;SDS011;61854;48.510;-2.770;2023-10-19T13:28:13;26.30;;;4.93;;
73571;SDS011;61854;48.510;-2.770;2023-10-19T13:30:39;19.25;;;2.90;;
73571;SDS011;61854;48.510;-2.770;2023-10-19T13:33:07;26.47;;;3.60;;
73571;SDS011;61854;48.510;-2.770;2023-10-19T13:35:36;23.08;;;3.78;;
73571;SDS011;61854;48.510;-2.770;2023-10-19T13:38:06;24.05;;;3.88;;
73571;SDS011;61854;48.510;-2.770;2023-10-19T13:40:33;20.45;;;3.80;;
73571;SDS011;61854;48.510;-2.770;2023-10-19T13:43:03;18.33;;;2.95;;
73571;SDS011;61854;48.510;-2.770;2023-10-19T13:45:31;17.08;;;3.03;;
73571;SDS011;61854;48.510;-2.770;2023-10-19T13:48:04;11.63;;;2.33;;
73571;SDS011;61854;48.510;-2.770;2023-10-19T13:50:31;16.83;;;2.38;;
73571;SDS011;61854;48.510;-2.770;2023-10-19T13:52:57;10.07;;;2.25;;
73571;SDS011;61854;48.510;-2.770;2023-10-19T13:55:30;18.73;;;2.90;;
73571;SDS011;61854;48.510;-2.770;2023-10-19T13:57:56;14.13;;;2.83;;
73571;SDS011;61854;48.510;-2.770;2023-10-19T14:00:23;18.23;;;2.92;;
73571;SDS011;61854;48.510;-2.770;2023-10-19T14:02:50;16.48;;;2.58;;
73571;SDS011;61854;48.510;-2.770;2023-10-19T14:05:16;11.02;;;1.75;;
73571;SDS011;61854;48.510;-2.770;2023-10-19T14:07:43;9.30;;;1.50;;
73571;SDS011;61854;48.510;-2.770;2023-10-19T14:10:11;4.72;;;0.95;;
73571;SDS011;61854;48.510;-2.770;2023-10-19T14:12:41;8.23;;;1.40;;
73571;SDS011;61854;48.510;-2.770;2023-10-19T14:15:17;7.72;;;1.50;;
73571;SDS011;61854;48.510;-2.770;2023-10-19T14:17:44;7.22;;;1.45;;
73571;SDS011;61854;48.510;-2.770;2023-10-19T14:20:11;7.65;;;1.58;;
73571;SDS011;61854;48.510;-2.770;2023-10-19T14:22:38;10.65;;;1.70;;
73571;SDS011;61854;48.510;-2.770;2023-10-19T14:25:05;9.43;;;1.47;;
73571;SDS011;61854;48.510;-2.770;2023-10-19T14:27:33;8.35;;;1.90;;
73571;SDS011;61854;48.510;-2.770;2023-10-19T14:30:00;9.68;;;2.22;;
73571;SDS011;61854;48.510;-2.770;2023-10-19T14:32:26;11.50;;;2.15;;
73571;SDS011;61854;48.510;-2.770;2023-10-19T14:34:52;17.13;;;2.40;;
73571;SDS011;61854;48.510;-2.770;2023-10-19T14:37:19;15.27;;;2.17;;
73571;SDS011;61854;48.510;-2.770;2023-10-19T14:39:44;11.88;;;1.80;;
73571;SDS011;61854;48.510;-2.770;2023-10-19T14:42:10;10.50;;;2.10;;
73571;SDS011;61854;48.510;-2.770;2023-10-19T14:44:36;12.65;;;1.95;;
73571;SDS011;61854;48.510;-2.770;2023-10-19T14:47:01;11.18;;;1.80;;
73571;SDS011;61854;48.510;-2.770;2023-10-19T14:49:29;13.43;;;2.10;;
73571;SDS011;61854;48.510;-2.770;2023-10-19T14:51:55;15.18;;;2.10;;
73571;SDS011;61854;48.510;-2.770;2023-10-19T14:54:21;13.15;;;2.08;;
73571;SDS011;61854;48.510;-2.770;2023-10-19T14:56:47;11.77;;;2.35;;
73571;SDS011;61854;48.510;-2.770;2023-10-19T14:59:13;11.00;;;1.77;;